Time;durP1;ratioP1;P1;durP2;ratioP2;P2;SDS_P1;SDS_P2;PMS_P1;PMS_P2;Temp;Humidity;BMP_temperature;BMP_pressure;BME280_temperature;BME280_humidity;BME280_pressure;Samples;Min_cycle;Max_cycle;Signal;HPM_P1;HPM_P2
2021/01/22 00:00:03;;;;;;;3.87;2.67;;;9.20;1.00;;;;;;4794929;29;20474;-92
2021/01/22 00:02:43;;;;;;;2.13;1.87;;;9.20;1.00;;;;;;4805466;29;20512;-91
2021/01/22 00:05:20;;;;;;;2.40;2.20;;;9.20;1.00;;;;;;4811529;29;20617;-91
2021/01/22 00:07:50;;;;;;;2.60;2.20;;;9.20;15.50;;;;;;4810948;29;20933;-91
2021/01/22 00:13:01;;;;;;;2.30;2.10;;;9.20;1.00;;;;;;4806262;29;20535;-91
2021/01/22 00:18:22;;;;;;;2.20;2.00;;;9.30;1.00;;;;;;4806248;29;20477;-91
2021/01/22 00:20:54;;;;;;;4.73;2.37;;;9.20;1.00;;;;;;4810543;29;20552;-91
2021/01/22 00:23:22;;;;;;;2.53;2.23;;;9.20;16.00;;;;;;4810709;29;20481;-91
2021/01/22 00:25:56;;;;;;;3.20;2.30;;;9.20;26.60;;;;;;4808361;29;20545;-91
2021/01/22 00:28:23;;;;;;;2.73;2.50;;;9.20;1.00;;;;;;4804850;29;20486;-91
2021/01/22 00:30:52;;;;;;;3.93;2.43;;;9.20;18.70;;;;;;4797959;29;20453;-91
2021/01/22 00:33:24;;;;;;;2.47;2.27;;;9.30;12.20;;;;;;4797571;29;21108;-91
2021/01/22 00:35:53;;;;;;;2.57;2.27;;;9.20;1.00;;;;;;4794331;29;20515;-90
2021/01/22 00:38:20;;;;;;;2.90;2.10;;;9.30;1.00;;;;;;4798944;29;20493;-91
2021/01/22 00:40:47;;;;;;;2.53;2.33;;;9.20;1.00;;;;;;4810348;29;20488;-91
2021/01/22 00:43:14;;;;;;;2.40;2.10;;;9.30;1.00;;;;;;4810051;29;20441;-90
2021/01/22 00:45:43;;;;;;;2.20;2.00;;;9.30;1.00;;;;;;4839080;29;20512;-90
2021/01/22 00:48:11;;;;;;;2.77;2.57;;;9.30;1.00;;;;;;4829011;29;20572;-91
2021/01/22 00:50:40;;;;;;;3.33;2.60;;;9.30;1.00;;;;;;4828939;29;20785;-91
2021/01/22 00:53:07;;;;;;;3.33;2.37;;;9.30;1.00;;;;;;4836843;29;20806;-91
2021/01/22 00:55:34;;;;;;;2.60;2.40;;;9.30;1.00;;;;;;4845278;29;20496;-91
2021/01/22 00:58:01;;;;;;;2.60;2.40;;;9.30;1.00;;;;;;4839731;29;20480;-91
2021/01/22 01:00:30;;;;;;;5.73;2.60;;;9.30;1.00;;;;;;4829468;29;20484;-91
2021/01/22 01:03:12;;;;;;;4.13;2.77;;;9.30;99.90;;;;;;4839308;29;20487;-91
2021/01/22 01:05:41;;;;;;;4.63;2.40;;;9.40;99.90;;;;;;4846520;29;20496;-90
2021/01/22 01:08:10;;;;;;;4.83;2.70;;;9.50;99.90;;;;;;4838664;29;20486;-90
2021/01/22 01:10:36;;;;;;;6.50;2.33;;;9.50;99.90;;;;;;4828655;29;20436;-91
2021/01/22 01:13:04;;;;;;;4.60;2.17;;;9.50;99.90;;;;;;4828274;29;20549;-90
2021/01/22 01:15:31;;;;;;;3.40;2.47;;;9.50;99.90;;;;;;4828805;29;20492;-91
2021/01/22 01:18:00;;;;;;;6.13;2.47;;;9.50;99.90;;;;;;4828595;29;20488;-91
2021/01/22 11:08:01;;;;;;;7.93;7.10;;;6.10;99.90;;;;;;4881396;29;20503;-92
2021/01/22 11:10:29;;;;;;;9.53;7.70;;;6.20;99.90;;;;;;4883090;29;20474;-92
2021/01/22 11:12:57;;;;;;;11.07;6.63;;;6.20;99.90;;;;;;4883750;29;20478;-92
2021/01/22 11:15:24;;;;;;;7.73;6.60;;;6.10;99.90;;;;;;4884025;29;20503;-92
2021/01/22 11:17:51;;;;;;;9.30;6.77;;;6.20;99.90;;;;;;4881229;29;20510;-92
2021/01/22 11:20:18;;;;;;;9.07;7.30;;;6.10;99.90;;;;;;4883717;29;20486;-92
2021/01/22 11:22:47;;;;;;;11.47;6.63;;;6.00;99.90;;;;;;4883686;29;20834;-92
2021/01/22 11:25:18;;;;;;;7.90;6.77;;;6.00;99.90;;;;;;4882698;29;20472;-92
2021/01/22 11:27:45;;;;;;;10.87;8.07;;;6.00;99.90;;;;;;4883437;29;20452;-92
2021/01/22 11:30:13;;;;;;;9.10;6.80;;;6.00;99.90;;;;;;4881129;29;20482;-92
2021/01/22 11:44:39;;;;;;;14.47;6.77;;;6.40;99.90;;;;;;655901;23;21965;-89
2021/01/22 12:01:43;;;;;;;10.47;6.20;;;7.20;1.00;;;;;;654773;23;21903;-87
2021/01/22 12:51:08;;;;;;;8.63;7.23;;;7.00;1.00;;;;;;4881732;29;20494;-92
2021/01/22 12:53:35;;;;;;;11.30;7.27;;;6.90;1.00;;;;;;4883249;29;20495;-92
2021/01/22 12:56:02;;;;;;;8.07;6.97;;;6.90;1.00;;;;;;4883212;29;20477;-92
2021/01/22 12:58:29;;;;;;;15.40;8.00;;;6.90;1.00;;;;;;4883139;29;20478;-92
2021/01/22 13:00:56;;;;;;;7.33;6.60;;;7.10;1.00;;;;;;4883687;29;20504;-92
2021/01/22 13:03:23;;;;;;;8.30;6.70;;;7.40;1.00;;;;;;4884377;29;20494;-93
2021/01/22 13:05:54;;;;;;;6.57;5.87;;;7.50;1.00;;;;;;4884104;29;20859;-93
2021/01/22 13:08:26;;;;;;;10.50;6.27;;;7.90;1.00;;;;;;4883932;29;20486;-93
2021/01/22 13:10:55;;;;;;;5.83;5.20;;;8.30;1.00;;;;;;4884682;29;20794;-93
2021/01/22 13:13:26;;;;;;;6.10;5.20;;;8.60;1.00;;;;;;4883295;29;20483;-93
2021/01/22 13:15:56;;;;;;;5.27;4.23;;;8.60;1.00;;;;;;4883888;29;20474;-92
2021/01/22 13:18:25;;;;;;;7.50;5.40;;;8.40;1.00;;;;;;4883686;29;20478;-92
2021/01/22 13:23:41;;;;;;;6.20;4.67;;;8.60;1.00;;;;;;4880410;29;20498;-92
2021/01/22 13:26:09;;;;;;;7.10;4.80;;;8.40;1.00;;;;;;4881772;29;20823;-92
2021/01/22 13:28:39;;;;;;;4.83;4.43;;;8.10;1.00;;;;;;4886917;29;20489;-92
2021/01/22 13:31:09;;;;;;;5.07;4.30;;;7.90;1.00;;;;;;4855050;29;20535;-93
2021/01/22 13:33:48;;;;;;;5.90;3.80;;;7.50;1.00;;;;;;4888721;29;20473;-92
2021/01/22 13:36:18;;;;;;;6.93;4.97;;;7.20;1.00;;;;;;4888734;29;20497;-92
2021/01/22 16:34:45;;;;;;;14.40;9.80;;;3.60;99.90;;;;;;4882039;29;20538;-92
2021/01/22 16:37:14;;;;;;;12.13;8.93;;;3.60;99.90;;;;;;4883358;29;20474;-93
2021/01/22 16:39:41;;;;;;;9.30;8.00;;;3.50;1.00;;;;;;4883214;29;20487;-92
2021/01/22 16:42:08;;;;;;;12.53;7.57;;;3.50;1.00;;;;;;4883447;29;20463;-92
2021/01/22 16:44:35;;;;;;;9.20;8.20;;;3.50;1.00;;;;;;4883403;29;20903;-92
2021/01/22 16:47:02;;;;;;;9.07;8.17;;;3.40;1.00;;;;;;4882658;29;20510;-92
2021/01/22 16:49:30;;;;;;;10.50;8.90;;;3.40;1.00;;;;;;4883394;29;20478;-92
2021/01/22 16:52:00;;;;;;;9.03;7.70;;;3.40;1.00;;;;;;4881911;29;20808;-92
2021/01/22 16:54:35;;;;;;;9.60;8.50;;;3.30;1.00;;;;;;4882025;29;20556;-92
2021/01/22 16:57:04;;;;;;;11.43;7.70;;;3.20;1.00;;;;;;4882988;29;20481;-92
2021/01/22 16:59:31;;;;;;;11.37;10.23;;;3.10;1.00;;;;;;4883213;29;20441;-92
2021/01/22 17:01:58;;;;;;;10.93;9.30;;;3.10;1.00;;;;;;4883385;29;20477;-92
2021/01/22 17:04:25;;;;;;;11.40;10.20;;;3.10;1.00;;;;;;4883711;29;20480;-93
2021/01/22 17:06:52;;;;;;;13.80;10.13;;;3.00;1.00;;;;;;4881898;29;20509;-92
2021/01/22 17:09:20;;;;;;;12.03;10.83;;;3.00;1.00;;;;;;4881794;29;20461;-92
2021/01/22 17:11:47;;;;;;;15.27;13.57;;;2.90;1.00;;;;;;4883096;29;20902;-92
2021/01/22 17:14:15;;;;;;;14.40;12.57;;;2.80;1.00;;;;;;4885429;29;20495;-92
2021/01/22 17:16:50;;;;;;;9.87;8.83;;;2.90;52.40;;;;;;4880721;29;20911;-92
2021/01/22 17:19:17;;;;;;;11.20;9.50;;;2.80;39.40;;;;;;4882970;29;20919;-92
2021/01/22 17:21:44;;;;;;;17.73;8.40;;;2.70;89.80;;;;;;4882674;29;20496;-91
2021/01/22 17:24:11;;;;;;;12.00;9.60;;;2.70;99.90;;;;;;4882682;29;20556;-92
2021/01/22 17:26:39;;;;;;;14.60;8.50;;;2.70;99.90;;;;;;4882515;29;20499;-92
2021/01/22 17:29:08;;;;;;;9.43;8.37;;;2.50;1.00;;;;;;4883227;29;20511;-92
2021/01/22 17:31:35;;;;;;;10.07;8.53;;;2.40;1.00;;;;;;4883388;29;20487;-92
2021/01/22 17:34:04;;;;;;;10.70;7.50;;;2.30;1.00;;;;;;4882533;29;20493;-92
2021/01/22 17:36:33;;;;;;;9.40;8.23;;;2.30;99.90;;;;;;4879166;29;20456;-92
2021/01/22 17:39:03;;;;;;;12.77;7.70;;;2.20;99.90;;;;;;4882962;29;20501;-92
2021/01/22 17:41:30;;;;;;;10.13;8.87;;;2.10;1.00;;;;;;4881769;29;20471;-92
2021/01/22 17:43:57;;;;;;;10.13;9.13;;;2.00;99.90;;;;;;4876079;29;20918;-92
2021/01/22 17:46:24;;;;;;;14.07;8.60;;;2.10;1.00;;;;;;4880123;29;20527;-92
2021/01/22 17:48:51;;;;;;;10.63;9.17;;;2.00;99.90;;;;;;4878405;29;20539;-92
2021/01/22 17:51:18;;;;;;;10.20;9.20;;;2.10;1.00;;;;;;4883239;29;20511;-92
2021/01/22 17:53:44;;;;;;;14.43;8.70;;;2.10;8.80;;;;;;4881745;29;20532;-92
2021/01/22 17:56:11;;;;;;;14.30;12.00;;;2.00;58.40;;;;;;4882803;29;20513;-92
2021/01/22 17:58:40;;;;;;;11.07;9.50;;;2.00;99.90;;;;;;4882683;29;20509;-92
2021/01/22 18:01:08;;;;;;;25.53;14.50;;;2.00;90.30;;;;;;4876503;29;20782;-92
2021/01/22 18:03:35;;;;;;;16.30;11.80;;;2.00;99.90;;;;;;4879733;29;20803;-92
2021/01/22 18:06:01;;;;;;;17.43;14.77;;;1.90;99.90;;;;;;4882343;29;20509;-91
2021/01/22 18:08:30;;;;;;;20.87;16.37;;;1.90;99.90;;;;;;4884631;29;20920;-92
2021/01/22 18:10:57;;;;;;;17.87;14.53;;;1.80;99.90;;;;;;4886447;29;20485;-92
2021/01/22 18:13:24;;;;;;;28.90;22.57;;;1.80;99.90;;;;;;4882712;29;20568;-91
2021/01/22 18:15:51;;;;;;;24.23;18.63;;;1.70;99.90;;;;;;4884624;29;20563;-92
2021/01/22 18:18:20;;;;;;;22.87;19.27;;;1.70;99.90;;;;;;4883710;29;20984;-91
2021/01/22 18:20:49;;;;;;;23.50;19.50;;;1.70;99.90;;;;;;4882893;29;20762;-91
2021/01/22 18:23:22;;;;;;;25.93;18.43;;;1.60;99.90;;;;;;4883923;29;20473;-91
2021/01/22 18:25:48;;;;;;;21.90;16.60;;;1.60;99.90;;;;;;4880662;29;20486;-91
2021/01/22 18:28:18;;;;;;;19.80;15.30;;;1.60;99.90;;;;;;4883397;29;20503;-91
2021/01/22 18:30:56;;;;;;;17.70;14.47;;;1.60;99.90;;;;;;4883108;29;20475;-92
2021/01/22 18:33:24;;;;;;;14.30;12.43;;;1.60;99.90;;;;;;4881030;29;20950;-92
2021/01/22 18:35:53;;;;;;;17.00;14.57;;;1.80;99.90;;;;;;4883588;29;20494;-92
2021/01/22 18:39:24;;;;;;;23.80;18.67;;;1.70;99.90;;;;;;4883536;29;20468;-93
2021/01/22 18:41:55;;;;;;;17.73;13.60;;;1.70;99.90;;;;;;4820738;29;20467;-92
2021/01/22 18:44:22;;;;;;;19.80;16.30;;;1.60;99.90;;;;;;4883057;29;20475;-92
2021/01/22 19:10:47;;;;;;;12.70;10.90;;;1.50;99.90;;;;;;4853779;29;20568;-93
2021/01/22 19:13:14;;;;;;;13.33;10.50;;;1.50;99.90;;;;;;4849418;29;20491;-93
2021/01/22 19:15:41;;;;;;;12.47;11.27;;;1.40;99.90;;;;;;4847439;29;20482;-93
2021/01/22 19:18:13;;;;;;;12.63;10.67;;;1.40;99.90;;;;;;4852621;29;20479;-93
2021/01/22 19:20:40;;;;;;;13.30;11.90;;;1.30;99.90;;;;;;4847450;29;20963;-93
2021/01/22 19:23:10;;;;;;;29.47;19.53;;;1.30;99.90;;;;;;4847501;29;20480;-93
2021/01/22 19:25:40;;;;;;;64.93;31.57;;;1.30;99.90;;;;;;4847671;29;20935;-93
2021/01/22 19:28:09;;;;;;;38.20;20.13;;;1.20;99.90;;;;;;4857530;29;20475;-93
2021/01/22 19:30:51;;;;;;;22.97;13.37;;;1.20;99.90;;;;;;4857491;29;20479;-93
2021/01/22 19:33:18;;;;;;;19.63;14.07;;;1.20;99.90;;;;;;4884191;24;20491;-93
2021/01/22 19:35:46;;;;;;;17.83;13.90;;;1.20;99.90;;;;;;4867064;29;20959;-93
2021/01/22 19:38:14;;;;;;;14.17;12.77;;;1.20;99.90;;;;;;4883165;29;20773;-94
2021/01/22 19:48:58;;;;;;;18.10;13.93;;;1.20;99.90;;;;;;4882070;29;20186;-93
2021/01/22 19:51:29;;;;;;;56.03;34.97;;;1.20;99.90;;;;;;4884200;29;20316;-93
2021/01/22 21:41:19;;;;;;;28.47;18.60;;;0.70;99.90;;;;;;4884543;29;20601;-89
2021/01/22 21:43:49;;;;;;;27.23;19.60;;;0.70;99.90;;;;;;4879316;29;20475;-89
2021/01/22 21:46:15;;;;;;;25.00;17.53;;;0.70;99.90;;;;;;4886404;29;20590;-88
2021/01/22 21:48:45;;;;;;;19.13;15.60;;;0.70;99.90;;;;;;4872973;29;20454;-89
2021/01/22 21:51:15;;;;;;;18.10;15.83;;;0.60;99.90;;;;;;4886726;29;20482;-89
2021/01/22 21:53:41;;;;;;;23.70;15.83;;;0.70;99.90;;;;;;4877760;29;20505;-89
2021/01/22 21:56:11;;;;;;;18.77;14.70;;;0.70;99.90;;;;;;4885412;29;20471;-89
2021/01/22 21:58:40;;;;;;;18.17;16.23;;;0.70;99.90;;;;;;4883393;29;20789;-89
2021/01/22 22:01:09;;;;;;;20.73;16.67;;;0.80;99.90;;;;;;4885725;29;20477;-89
2021/01/22 22:03:35;;;;;;;19.10;16.60;;;0.80;99.90;;;;;;4884394;29;20481;-89
2021/01/22 22:06:02;;;;;;;19.07;16.33;;;0.70;99.90;;;;;;4880653;29;20498;-89
2021/01/22 22:08:29;;;;;;;22.47;16.07;;;0.70;99.90;;;;;;4882869;29;20467;-89
2021/01/22 22:10:59;;;;;;;21.33;17.40;;;0.70;99.90;;;;;;4879892;29;20479;-89
2021/01/22 22:13:25;;;;;;;30.80;21.10;;;0.60;99.90;;;;;;4884916;29;20471;-89
2021/01/22 22:15:56;;;;;;;24.77;20.70;;;0.60;99.90;;;;;;4878247;29;20555;-89
2021/01/22 22:18:23;;;;;;;21.73;19.03;;;0.60;99.90;;;;;;4885395;29;20479;-89
2021/01/22 22:20:49;;;;;;;21.37;18.03;;;0.60;99.90;;;;;;4886094;29;20506;-89
2021/01/22 22:23:16;;;;;;;21.80;16.87;;;0.60;99.90;;;;;;4884998;29;20485;-89
2021/01/22 22:25:43;;;;;;;21.43;16.30;;;0.50;99.90;;;;;;4880632;29;20486;-89
2021/01/22 22:28:10;;;;;;;20.80;17.40;;;0.40;99.90;;;;;;4883039;29;20476;-88
2021/01/22 22:30:39;;;;;;;17.17;15.47;;;0.40;99.90;;;;;;4881562;29;20482;-89
2021/01/22 22:33:07;;;;;;;21.53;15.43;;;0.40;99.90;;;;;;4883472;29;20472;-89
2021/01/22 22:35:34;;;;;;;25.30;15.87;;;0.40;99.90;;;;;;4885712;29;20475;-89
2021/01/22 22:38:01;;;;;;;20.43;16.73;;;0.40;99.90;;;;;;4878892;29;20471;-89
2021/01/22 22:40:27;;;;;;;22.57;15.47;;;0.40;99.90;;;;;;4885043;29;20526;-89
2021/01/22 22:42:55;;;;;;;22.73;15.80;;;0.40;99.90;;;;;;4878678;29;20550;-89
2021/01/22 22:45:22;;;;;;;17.10;14.90;;;0.40;99.90;;;;;;4884850;29;20485;-89
2021/01/22 22:47:52;;;;;;;22.40;15.60;;;0.30;99.90;;;;;;4882080;29;20498;-89
2021/01/22 22:50:19;;;;;;;24.00;16.43;;;0.30;99.90;;;;;;4891309;29;20473;-89
2021/01/22 22:52:49;;;;;;;22.20;16.63;;;0.30;99.90;;;;;;4876684;29;20513;-89
2021/01/22 22:55:16;;;;;;;24.20;16.30;;;0.30;99.90;;;;;;4885340;29;20951;-89
2021/01/22 22:57:43;;;;;;;27.03;18.80;;;0.30;99.90;;;;;;4884440;29;20470;-89
2021/01/22 23:00:11;;;;;;;26.07;19.33;;;0.30;99.90;;;;;;4884880;29;20437;-89
2021/01/22 23:02:41;;;;;;;24.73;19.07;;;0.30;99.90;;;;;;4881481;29;20515;-89
2021/01/22 23:05:09;;;;;;;28.50;17.90;;;0.30;99.90;;;;;;4883002;29;20865;-89
2021/01/22 23:07:37;;;;;;;85.20;43.00;;;0.30;99.90;;;;;;4881584;29;20594;-89
2021/01/22 23:10:06;;;;;;;66.20;36.07;;;0.30;99.90;;;;;;4881494;29;20630;-89
2021/01/22 23:12:33;;;;;;;57.93;35.13;;;0.30;99.90;;;;;;4880293;29;20484;-89
2021/01/22 23:15:02;;;;;;;39.07;25.87;;;0.30;99.90;;;;;;4880764;29;20474;-89
2021/01/22 23:17:29;;;;;;;54.20;29.50;;;0.30;99.90;;;;;;4885449;29;20554;-89
2021/01/22 23:19:56;;;;;;;30.30;19.73;;;0.30;99.90;;;;;;4885493;29;20558;-89
2021/01/22 23:22:25;;;;;;;20.67;16.80;;;0.30;99.90;;;;;;4885483;29;20561;-89
2021/01/22 23:24:53;;;;;;;19.70;16.23;;;0.30;99.90;;;;;;4882037;29;20500;-89
2021/01/22 23:27:19;;;;;;;19.53;16.43;;;0.40;99.90;;;;;;4884287;29;20501;-89
2021/01/22 23:29:46;;;;;;;18.80;15.10;;;0.40;99.90;;;;;;4884705;29;20845;-89
2021/01/22 23:32:16;;;;;;;18.57;15.40;;;0.40;99.90;;;;;;4884319;29;20561;-89
2021/01/22 23:34:43;;;;;;;18.27;15.87;;;0.40;99.90;;;;;;4884452;29;20554;-89
2021/01/22 23:37:09;;;;;;;21.00;15.97;;;0.30;99.90;;;;;;4886284;29;20466;-89
2021/01/22 23:39:36;;;;;;;18.23;15.80;;;0.30;99.90;;;;;;4884271;29;20494;-89
2021/01/22 23:42:04;;;;;;;17.70;14.93;;;0.40;99.90;;;;;;4880624;29;20480;-89
2021/01/22 23:44:31;;;;;;;17.47;14.90;;;0.40;99.90;;;;;;4883078;29;20543;-89
2021/01/22 23:46:57;;;;;;;21.03;16.00;;;0.30;99.90;;;;;;4882796;29;20799;-89
2021/01/22 23:49:26;;;;;;;19.67;14.87;;;0.30;99.90;;;;;;4882903;29;20454;-89
2021/01/22 23:51:53;;;;;;;19.07;16.07;;;0.40;99.90;;;;;;4882086;29;20473;-89
2021/01/22 23:54:20;;;;;;;18.97;15.50;;;0.40;99.90;;;;;;4883447;29;20463;-89
2021/01/22 23:56:46;;;;;;;19.70;15.50;;;0.40;99.90;;;;;;4881784;29;20595;-89
2021/01/22 23:59:14;;;;;;;23.90;16.87;;;0.30;99.90;;;;;;4883751;29;20482;-89
